METAR Data
IDs: Format: Raw Decoded Include TAF

Data at: 0706 UTC 11 Dec 2018

PASM 110702Z AUTO 33016KT 3SM -SN BR FEW011 BKN019 OVC028 M08/M09 A2880 RMK AO2 SLP770 P0000 T10831094 FZRANO
PASM 110650Z AUTO 33016KT 4SM -SN BR FEW011 SCT019 OVC028 M08/M09 A2880 RMK AO2 P0000 FZRANO
PASM 110632Z AUTO 33017KT 2SM -SN BR BKN017 OVC028 M08/M09 A2879 RMK AO2 P0000 FZRANO
PASM 110602Z AUTO 33017KT 1 1/4SM -SN BR OVC015 M08/M09 A2879 RMK AO2 SLP765 P0000 60000 T10831094 11078 21083 50003 FZRANO
PASM 110502Z AUTO 33018KT 1 1/4SM -SN BR BKN017 OVC026 M08/M09 A2878 RMK AO2 SLP761 P0000 T10831094 FZRANO
PASM 110402Z AUTO 34018KT 1 1/2SM -SN BR OVC017 M08/M09 A2878 RMK AO2 SLP761 P0000 T10831094 FZRANO
PASM 110347Z AUTO 34018G24KT 1 1/4SM -SN BR OVC015 M08/M09 A2877 RMK AO2 P0000 FZRANO
PASM 110319Z AUTO 34018KT 1 1/4SM -SN BR OVC011 M08/M09 A2878 RMK AO2 P0000 FZRANO
PASM 110302Z AUTO 34019KT 1SM -SN BR BKN011 OVC017 M08/M09 A2878 RMK AO2 SLP761 P0000 60000 T10831089 56004 FZRANO
PASM 110254Z AUTO 34016KT 1SM -SN BR BKN014 OVC019 M08/M09 A2878 RMK AO2 P0000 FZRANO
PASM 110224Z AUTO 35018KT 1 1/2SM -SN BR OVC020 M08/M09 A2877 RMK AO2 P0000 FZRANO
PASM 110215Z AUTO 35018KT 1SM -SN BR SCT015 OVC020 M08/M09 A2877 RMK AO2 P0000 FZRANO
PASM 110208Z AUTO 35020KT 1/2SM SN FZFG BKN015 OVC020 M08/M09 A2877 RMK AO2 SLP758 P0000 T10781089 FZRANO
PASM 110202Z AUTO 35019KT 1/2SM SN FZFG OVC015 M08/M09 A2877 RMK AO2 P0000 FZRANO
PASM 110149Z AUTO 35021KT 1/2SM SN FZFG OVC013 M08/M09 A2877 RMK AO2 P0000 FZRANO
PASM 110135Z AUTO 35019KT 3/4SM -SN BR OVC015 M08/M09 A2877 RMK AO2 SNE00230005B00230021 SLP758 P0000 T10781089 FZRANO
PASM 110102Z AUTO 35016KT 3/4SM -SN BR OVC015 M08/M09 A2878 RMK AO2 SNE00230005B00230021 P0000 FZRANO
PASM 110035Z AUTO 36015KT 1/2SM SN FZFG BKN018 BKN022 OVC029 M08/M09 A2879 RMK AO2 SNE2305B2321 P0000 FZRANO
PASM 110010Z AUTO 36016KT 3/4SM -SN BR BKN021 OVC028 M08/M09 A2879 RMK AO2 SNE2305B2321 P0000 FZRANO
PASM 110002Z AUTO 35017KT 1SM -SN BR BKN023 OVC028 M09/M09 A2879 RMK AO2 SNE2305B2321 P0000 FZRANO
PASM 102335Z AUTO 36016KT 1 3/4SM -SN BR BKN017 OVC025 M09/M11 A2879 RMK AO2 SNE05B21 P0000 FZRANO
PASM 102326Z AUTO 35014KT 5SM -SN BR OVC015 M09/M11 A2879 RMK AO2 SNE05B21 P0000 FZRANO
PASM 102302Z AUTO 35014KT 9SM -SN OVC013 M10/M11 A2878 RMK AO2 SNB2253 SLP762 P0000 T11001111 FZRANO
PASM 102202Z AUTO 34012KT 10SM OVC013 M11/M12 A2879 RMK AO2 SLP765 T11061117 FZRANO
PASM 102138Z AUTO 34010KT 10SM OVC013 M09/M11 A2879 RMK AO2 FZRANO
PASM 102102Z AUTO 01007KT 10SM OVC009 M09/M11 A2881 RMK AO2 SLP771 60000 T10941106 55000 FZRANO
PASM 102002Z AUTO 36008KT 10SM OVC009 M11/M12 A2881 RMK AO2 CIG 007V012 SLP774 T11061117 FZRANO
PASM 101922Z AUTO 02006KT 10SM OVC009 M11/M12 A2882 RMK AO2 FZRANO
PASM 101902Z AUTO 04006KT 10SM OVC011 M11/M12 A2881 RMK AO2 SLP772 T11111122 FZRANO
PASM 101814Z AUTO 02008KT 10SM BKN011 OVC027 M12/M13 A2880 RMK AO2 FZRANO
PASM 101802Z AUTO 03005KT 10SM FEW011 OVC027 M12/M14 A2881 RMK AO2 SLP772 60000 T11221139 11106 21122 58006 FZRANO
PASM 101702Z AUTO 03004KT 10SM OVC023 M12/M13 A2881 RMK AO2 SNE1653 SLP774 P0000 T11221133 FZRANO
PASM 101602Z AUTO 03005KT 9SM -SN BKN023 M12/M13 A2882 RMK AO2 SLP776 P0000 T11221133 FZRANO
PASM 101543Z AUTO 04006KT 9SM -SN BKN023 BKN037 OVC048 M12/M13 A2882 RMK AO2 P0000 FZRANO
PASM 101502Z AUTO 04007KT 9SM -SN OVC050 M11/M12 A2883 RMK AO2 SNB1431 SLP778 P0000 60000 T11111122 58016 FZRANO
PASM 101402Z AUTO 03007KT 10SM OVC075 M12/M13 A2883 RMK AO2 SLP780 T11171128 FZRANO
PASM 101302Z AUTO 04006KT 10SM OVC080 M12/M13 A2886 RMK AO2 SLP788 T11171128 FZRANO
PASM 101247Z AUTO 04004KT 10SM FEW027 OVC085 M12/M13 A2886 RMK AO2 FZRANO
PASM 101202Z AUTO 05007KT 10SM OVC025 M11/M12 A2887 RMK AO2 SLP793 60000 7//// T11061117 11100 21111 58017 FZRANO
PASM 101102Z AUTO 01010KT 9SM OVC015 M11/M11 A2888 RMK AO2 FZRANO
PASM 101021Z AUTO 01009KT 10SM OVC013 M11/M12 A2890 RMK AO2 FZRANO
PASM 101002Z AUTO 01008KT 9SM BKN015 OVC022 M11/M12 A2890 RMK AO2 SNB0923E00 SLP802 P0000 T11111117 FZRANO
PASM 100902Z AUTO 01007KT 10SM OVC021 M11/M12 A2892 RMK AO2 SNE0813 SLP809 P0000 60000 T11111122 58012 FZRANO
PASM 100802Z AUTO 02004KT 10SM -SN OVC021 M11/M12 A2893 RMK AO2 SLP814 P0000 T11111122 411111111 FZRANO
PASM 100702Z AUTO 05006KT 9SM -SN OVC023 M11/M12 A2895 RMK AO2 SLP821 P0000 T11061117 FZRANO
PASM 100602Z AUTO 07006KT 9SM -SN OVC027 M11/M12 A2896 RMK AO2 SLP823 P0000 60000 T11111122 11089 21111 56004 FZRANO
PASM 100510Z AUTO 06006KT 4SM -SN BR FEW017 BKN025 OVC029 M11/M11 A2897 RMK AO2 P0000 FZRANO
PASM 100502Z AUTO 06004KT 2 1/2SM -SN BR OVC025 M11/M12 A2897 RMK AO2 VIS 1 3/4V4 P0000 FZRANO
PASM 100402Z AUTO 00000KT 9SM -SN OVC029 M10/M11 A2897 RMK AO2 SLP827 P0000 T11001111 FZRANO
PASM 100302Z AUTO 09004KT 9SM -SN OVC029 M09/M11 A2898 RMK AO2 SLP829 P0000 60000 T10941106 56007 FZRANO
PASM 100235Z AUTO 10005KT 9SM -SN OVC029 M09/M10 A2898 RMK AO2 P0000 FZRANO
PASM 100202Z AUTO 09003KT 9SM -SN OVC031 M09/M10 A2898 RMK AO2 SNE0108B0144 SLP829 P0000 T10941100 FZRANO
PASM 100102Z AUTO 13004KT 9SM -SN OVC031 M09/M10 A2898 RMK AO2 SNB0056 SLP831 P0000 T10891100 FZRANO
PASM 100002Z AUTO 00000KT 9SM OVC033 M09/M10 A2899 RMK AO2 SNE2311B2343E01 SLP832 P0000 60000 T10941100 11089 21122 58005 FZRANO
PASM 092302Z AUTO 12004KT 8SM -SN OVC033 M09/M10 A2900 RMK AO2 SNB2207 SLP838 P0000 T10941100 FZRANO
PASM 092202Z AUTO 09003KT 10SM OVC035 M09/M11 A2901 RMK AO2 SLP842 T10941106 FZRANO
PASM 092102Z AUTO 00000KT 8SM OVC037 M11/M12 A2902 RMK AO2 SNB2038E02 SLP842 P0000 60000 T11061117 53003 FZRANO
PASM 092002Z AUTO 00000KT 10SM OVC037 M11/M12 A2902 RMK AO2 SLPNO T11111122 FZRANO